createdAt,value
2023-02-14T00:00:04.411Z,20.00
2023-02-14T00:00:15.500Z,19.70
2023-02-14T00:00:26.452Z,19.40
2023-02-14T00:00:37.259Z,19.20
2023-02-14T00:00:48.340Z,20.00
2023-02-14T00:00:59.635Z,19.80
2023-02-14T00:01:09.957Z,19.80
2023-02-14T00:01:20.990Z,19.60
2023-02-14T00:01:32.044Z,20.20
2023-02-14T00:01:42.767Z,20.40
2023-02-14T00:01:53.806Z,20.00
2023-02-14T00:02:04.765Z,19.90
2023-02-14T00:02:15.548Z,20.00
2023-02-14T00:02:26.625Z,19.90
2023-02-14T00:02:37.617Z,19.70
2023-02-14T00:02:48.464Z,19.50
2023-02-14T00:02:59.139Z,19.70
2023-02-14T00:03:10.118Z,19.70
2023-02-14T00:03:20.885Z,19.60
2023-02-14T00:03:31.946Z,19.20
2023-02-14T00:03:42.910Z,19.80
2023-02-14T00:03:53.695Z,19.60
2023-02-14T00:04:04.750Z,19.60
2023-02-14T00:04:15.770Z,19.60
2023-02-14T00:04:26.626Z,19.80
2023-02-14T00:04:37.147Z,19.30
2023-02-14T00:04:48.151Z,19.90
2023-02-14T00:04:58.952Z,20.00
2023-02-14T00:05:09.464Z,19.70
2023-02-14T00:05:20.457Z,19.20
2023-02-14T00:05:31.207Z,19.80
2023-02-14T00:05:42.252Z,19.90
2023-02-14T00:05:53.217Z,20.00
2023-02-14T00:06:04.023Z,19.80
2023-02-14T00:06:15.091Z,19.70
2023-02-14T00:06:26.033Z,19.00
2023-02-14T00:06:36.834Z,19.40
2023-02-14T00:06:47.866Z,19.90
2023-02-14T00:06:58.840Z,20.10
2023-02-14T00:07:09.600Z,19.70
2023-02-14T00:07:20.648Z,19.50
2023-02-14T00:07:31.616Z,19.70
2023-02-14T00:07:42.381Z,19.00
2023-02-14T00:07:53.453Z,18.80
2023-02-14T00:08:04.429Z,18.90
2023-02-14T00:08:15.186Z,19.40
2023-02-14T00:08:26.260Z,19.80
2023-02-14T00:08:37.229Z,19.90
2023-02-14T00:08:48.010Z,19.70
2023-02-14T00:08:59.052Z,20.00
2023-02-14T00:09:10.022Z,19.50
2023-02-14T00:09:20.816Z,19.70
2023-02-14T00:09:31.844Z,19.70
2023-02-14T00:09:42.847Z,19.40
2023-02-14T00:09:53.612Z,19.10
2023-02-14T00:10:04.658Z,19.50
2023-02-14T00:10:15.635Z,19.80
2023-02-14T00:10:26.397Z,19.80
2023-02-14T00:10:37.443Z,19.50
2023-02-14T00:10:48.406Z,19.20
2023-02-14T00:10:59.405Z,18.70
2023-02-14T00:11:10.045Z,18.90
2023-02-14T00:11:21.007Z,19.10
2023-02-14T00:11:31.791Z,20.30
2023-02-14T00:11:42.818Z,20.00
2023-02-14T00:11:53.804Z,20.40
2023-02-14T00:12:04.571Z,20.30
2023-02-14T00:12:15.629Z,21.10
2023-02-14T00:12:26.599Z,21.10
2023-02-14T00:12:37.366Z,21.20
2023-02-14T00:12:48.412Z,21.30
2023-02-14T00:12:59.414Z,21.10
2023-02-14T00:13:10.156Z,20.60
2023-02-14T00:13:21.219Z,20.50
2023-02-14T00:13:32.162Z,20.20
2023-02-14T00:13:42.940Z,19.70
2023-02-14T00:13:54.042Z,19.70
2023-02-14T00:14:05.002Z,20.40
2023-02-14T00:14:15.767Z,20.50
2023-02-14T00:14:26.835Z,20.00
2023-02-14T00:14:37.819Z,19.90
2023-02-14T00:14:48.573Z,20.40
2023-02-14T00:14:59.627Z,20.70
2023-02-14T00:15:10.598Z,20.70
2023-02-14T00:15:21.375Z,20.80
2023-02-14T00:15:32.424Z,21.00
2023-02-14T00:15:43.441Z,21.10
2023-02-14T00:15:54.201Z,21.10
2023-02-14T00:16:05.267Z,21.30
2023-02-14T00:16:16.293Z,21.30
2023-02-14T00:16:27.142Z,21.40
2023-02-14T00:16:37.624Z,20.90
2023-02-14T00:16:48.586Z,20.10
2023-02-14T00:16:59.391Z,20.00
2023-02-14T00:17:10.424Z,20.50
2023-02-14T00:17:21.391Z,20.50
2023-02-14T00:17:32.141Z,20.40
2023-02-14T00:17:43.336Z,20.20
2023-02-14T00:17:54.254Z,20.50
2023-02-14T00:18:05.041Z,20.50
2023-02-14T00:18:16.905Z,20.20
2023-02-14T00:18:26.680Z,20.40
2023-02-14T00:18:37.495Z,20.40
2023-02-14T00:18:48.533Z,21.00
2023-02-14T00:18:59.537Z,20.90
2023-02-14T00:19:10.282Z,20.70
2023-02-14T00:19:21.329Z,20.40
2023-02-14T00:19:32.299Z,20.00
2023-02-14T00:19:43.075Z,19.70
2023-02-14T00:19:54.120Z,19.90
2023-02-14T00:20:05.093Z,20.30
2023-02-14T00:20:15.855Z,20.40
2023-02-14T00:20:26.905Z,20.00
2023-02-14T00:20:37.915Z,19.50
2023-02-14T00:20:48.668Z,20.20
2023-02-14T00:20:59.988Z,20.60
2023-02-14T00:21:10.540Z,21.00
2023-02-14T00:21:21.309Z,20.90
2023-02-14T00:21:32.356Z,21.00
2023-02-14T00:21:43.342Z,20.70
2023-02-14T00:21:54.097Z,20.20
2023-02-14T00:22:05.145Z,20.40
2023-02-14T00:22:16.118Z,20.40
2023-02-14T00:22:26.881Z,20.40
2023-02-14T00:22:37.944Z,20.60
2023-02-14T00:22:48.916Z,20.80
2023-02-14T00:22:59.689Z,21.20
2023-02-14T00:23:10.735Z,21.30
2023-02-14T00:23:21.747Z,20.30
2023-02-14T00:23:32.498Z,19.70
2023-02-14T00:23:43.552Z,19.80
2023-02-14T00:23:54.540Z,20.20
2023-02-14T00:24:05.339Z,20.50
2023-02-14T00:24:16.394Z,20.60
2023-02-14T00:24:27.333Z,20.70
2023-02-14T00:24:38.122Z,20.40
2023-02-14T00:24:49.180Z,20.20
2023-02-14T00:25:00.164Z,20.60
2023-02-14T00:25:10.931Z,21.10
2023-02-14T00:25:22.006Z,21.00
2023-02-14T00:25:32.939Z,20.60
2023-02-14T00:25:43.704Z,19.90
2023-02-14T00:25:54.752Z,20.10
2023-02-14T00:26:05.805Z,20.20
2023-02-14T00:26:16.565Z,20.70
2023-02-14T00:26:27.609Z,20.70
2023-02-14T00:26:38.628Z,20.60
2023-02-14T00:26:49.433Z,20.60
2023-02-14T00:26:59.942Z,20.60
2023-02-14T00:27:10.923Z,19.90
2023-02-14T00:27:21.677Z,20.80
2023-02-14T00:27:32.721Z,20.50
2023-02-14T00:27:43.686Z,20.80
2023-02-14T00:27:54.452Z,20.60
2023-02-14T00:28:05.491Z,21.10
2023-02-14T00:28:16.473Z,21.20
2023-02-14T00:28:27.249Z,21.00
2023-02-14T00:28:38.272Z,20.50
2023-02-14T00:28:49.243Z,20.10
2023-02-14T00:29:00.008Z,19.40
2023-02-14T00:29:11.064Z,19.60
2023-02-14T00:29:22.034Z,20.10
2023-02-14T00:29:32.799Z,20.20
2023-02-14T00:29:43.858Z,19.80
2023-02-14T00:29:54.912Z,19.70
2023-02-14T00:30:05.652Z,20.10
2023-02-14T00:30:16.741Z,20.10
2023-02-14T00:30:27.755Z,19.70
2023-02-14T00:30:38.659Z,19.70
2023-02-14T00:30:49.273Z,19.30
2023-02-14T00:31:00.727Z,19.80
2023-02-14T00:31:11.277Z,19.90
2023-02-14T00:31:21.910Z,19.90
2023-02-14T00:31:33.007Z,19.60
2023-02-14T00:31:43.767Z,19.50
2023-02-14T00:31:54.898Z,19.90
2023-02-14T00:32:05.450Z,20.10
2023-02-14T00:32:16.201Z,20.30
2023-02-14T00:32:27.230Z,20.00
2023-02-14T00:32:38.217Z,20.20
2023-02-14T00:32:48.986Z,19.40
2023-02-14T00:33:00.062Z,19.30
2023-02-14T00:33:11.008Z,19.00
2023-02-14T00:33:21.810Z,19.20
2023-02-14T00:33:32.859Z,19.20
2023-02-14T00:33:43.828Z,19.30
2023-02-14T00:33:54.609Z,19.50
2023-02-14T00:34:05.671Z,19.60
2023-02-14T00:34:16.615Z,19.40
2023-02-14T00:34:27.380Z,19.60
2023-02-14T00:34:38.476Z,19.00
2023-02-14T00:34:49.415Z,19.40
2023-02-14T00:35:00.176Z,19.70
2023-02-14T00:35:11.222Z,19.90
2023-02-14T00:35:22.182Z,19.40
2023-02-14T00:35:32.952Z,19.60
2023-02-14T00:35:43.995Z,19.50
2023-02-14T00:35:54.981Z,19.30
2023-02-14T00:36:05.727Z,18.50
2023-02-14T00:36:16.780Z,18.30
2023-02-14T00:36:27.757Z,18.70
2023-02-14T00:36:38.578Z,18.90
2023-02-14T00:36:49.592Z,19.20
2023-02-14T00:37:00.580Z,19.30
2023-02-14T00:37:11.334Z,18.50
2023-02-14T00:37:22.392Z,18.80
2023-02-14T00:37:33.370Z,18.70
2023-02-14T00:37:44.136Z,18.80
2023-02-14T00:37:55.194Z,18.90
2023-02-14T00:38:06.203Z,19.00
2023-02-14T00:38:16.916Z,19.30
2023-02-14T00:38:27.995Z,19.00
2023-02-14T00:38:38.976Z,19.30
2023-02-14T00:38:49.724Z,19.60
2023-02-14T00:39:00.779Z,19.70
2023-02-14T00:39:11.734Z,19.00
2023-02-14T00:39:22.537Z,18.40
2023-02-14T00:39:33.565Z,18.20
2023-02-14T00:39:44.528Z,18.90
2023-02-14T00:39:55.310Z,19.30
2023-02-14T00:40:06.368Z,19.50
2023-02-14T00:40:17.321Z,19.20
2023-02-14T00:40:28.092Z,19.00
2023-02-14T00:40:39.178Z,18.90
2023-02-14T00:40:50.113Z,18.80
2023-02-14T00:41:01.171Z,18.70
2023-02-14T00:41:11.744Z,17.80
2023-02-14T00:41:22.719Z,17.90
2023-02-14T00:41:33.461Z,18.30
2023-02-14T00:41:44.508Z,18.70
2023-02-14T00:41:55.496Z,19.10
2023-02-14T00:42:06.243Z,18.80
2023-02-14T00:42:17.280Z,19.00
2023-02-14T00:42:28.258Z,18.70
2023-02-14T00:42:39.033Z,18.70
2023-02-14T00:42:50.090Z,18.40
2023-02-14T00:43:01.065Z,18.50
2023-02-14T00:43:11.829Z,18.30
2023-02-14T00:43:22.874Z,18.40
2023-02-14T00:43:33.861Z,18.50
2023-02-14T00:43:44.605Z,18.50
2023-02-14T00:43:55.659Z,18.50
2023-02-14T00:44:06.620Z,18.40
2023-02-14T00:44:17.392Z,18.70
2023-02-14T00:44:28.444Z,18.90
2023-02-14T00:44:39.446Z,18.70
2023-02-14T00:44:50.191Z,18.40
2023-02-14T00:45:01.260Z,18.80
2023-02-14T00:45:12.233Z,19.20
2023-02-14T00:45:22.985Z,19.70
2023-02-14T00:45:34.101Z,19.30
2023-02-14T00:45:45.070Z,19.70
2023-02-14T00:45:55.911Z,19.20
2023-02-14T00:46:06.476Z,19.10
2023-02-14T00:46:17.503Z,19.50
2023-02-14T00:46:28.326Z,19.60
2023-02-14T00:46:39.370Z,19.70
2023-02-14T00:46:50.332Z,19.50
2023-02-14T00:47:01.110Z,19.50
2023-02-14T00:47:12.147Z,19.50
2023-02-14T00:47:23.145Z,19.10
2023-02-14T00:47:33.911Z,19.30
2023-02-14T00:47:44.956Z,19.80
2023-02-14T00:47:55.982Z,20.30
2023-02-14T00:48:06.723Z,20.30
2023-02-14T00:48:17.791Z,20.10
2023-02-14T00:48:28.742Z,20.10
2023-02-14T00:48:39.511Z,19.40
2023-02-14T00:48:50.562Z,19.40
2023-02-14T00:49:01.538Z,19.30
2023-02-14T00:49:12.359Z,19.50
2023-02-14T00:49:22.857Z,19.30
2023-02-14T00:49:33.859Z,19.60
2023-02-14T00:49:44.611Z,19.30
2023-02-14T00:49:55.676Z,19.10
2023-02-14T00:50:06.683Z,19.70
2023-02-14T00:50:17.442Z,19.90
2023-02-14T00:50:28.486Z,19.90
2023-02-14T00:50:39.463Z,19.70
2023-02-14T00:50:50.215Z,19.80
2023-02-14T00:51:01.484Z,19.50
2023-02-14T00:51:11.948Z,19.40
2023-02-14T00:51:22.729Z,19.50
2023-02-14T00:51:33.775Z,19.40
2023-02-14T00:51:44.754Z,19.60
2023-02-14T00:51:55.505Z,20.30
2023-02-14T00:52:06.552Z,20.30
2023-02-14T00:52:17.562Z,19.90
2023-02-14T00:52:28.322Z,19.90
2023-02-14T00:52:39.364Z,19.40
2023-02-14T00:52:50.345Z,19.70
2023-02-14T00:53:01.120Z,19.60
2023-02-14T00:53:12.168Z,19.80
2023-02-14T00:53:23.132Z,19.50
2023-02-14T00:53:33.900Z,19.30
2023-02-14T00:53:44.949Z,19.20
2023-02-14T00:53:55.908Z,19.60
2023-02-14T00:54:06.717Z,20.00
2023-02-14T00:54:17.750Z,20.40
2023-02-14T00:54:28.712Z,20.10
2023-02-14T00:54:39.505Z,20.00
2023-02-14T00:54:50.545Z,20.00
2023-02-14T00:55:01.516Z,20.80
2023-02-14T00:55:12.347Z,20.90
2023-02-14T00:55:22.833Z,21.00
2023-02-14T00:55:33.815Z,20.60
2023-02-14T00:55:44.587Z,20.90
2023-02-14T00:55:55.623Z,21.30
2023-02-14T00:56:06.607Z,21.00
2023-02-14T00:56:17.353Z,20.20
2023-02-14T00:56:28.419Z,20.40
2023-02-14T00:56:39.374Z,20.10
2023-02-14T00:56:50.157Z,20.00
2023-02-14T00:57:01.181Z,19.60
2023-02-14T00:57:12.163Z,19.30
2023-02-14T00:57:22.919Z,19.70
2023-02-14T00:57:34.007Z,19.80
2023-02-14T00:57:44.951Z,20.20
2023-02-14T00:57:55.724Z,19.90
2023-02-14T00:58:06.776Z,20.20
2023-02-14T00:58:17.743Z,19.60
2023-02-14T00:58:28.513Z,20.40
2023-02-14T00:58:39.558Z,19.70
2023-02-14T00:58:50.527Z,19.40
2023-02-14T00:59:01.306Z,19.60
2023-02-14T00:59:12.341Z,20.10
2023-02-14T00:59:23.315Z,20.10
2023-02-14T00:59:34.100Z,19.60
2023-02-14T00:59:45.157Z,19.40
2023-02-14T00:59:56.113Z,19.60
2023-02-14T01:00:06.878Z,19.40
2023-02-14T01:00:17.933Z,19.50
2023-02-14T01:00:29.040Z,20.00
2023-02-14T01:00:39.922Z,20.40
2023-02-14T01:00:50.404Z,20.70
2023-02-14T01:01:01.804Z,20.10
2023-02-14T01:01:12.285Z,19.30
2023-02-14T01:01:22.892Z,19.50
2023-02-14T01:01:33.843Z,19.60
2023-02-14T01:01:44.607Z,19.70
2023-02-14T01:01:55.653Z,19.30
2023-02-14T01:02:06.666Z,19.50
2023-02-14T01:02:17.438Z,19.80
2023-02-14T01:02:28.477Z,20.30
2023-02-14T01:02:39.503Z,20.70
2023-02-14T01:02:50.374Z,20.50
2023-02-14T01:03:00.884Z,20.40
2023-02-14T01:03:11.847Z,19.90
2023-02-14T01:03:22.629Z,20.20
2023-02-14T01:03:33.680Z,20.00
2023-02-14T01:03:44.693Z,19.90
2023-02-14T01:03:55.394Z,19.80
2023-02-14T01:04:06.444Z,19.70
2023-02-14T01:04:17.458Z,19.50
2023-02-14T01:04:28.185Z,19.70
2023-02-14T01:04:39.243Z,19.60
2023-02-14T01:04:50.232Z,19.70
2023-02-14T01:05:00.989Z,19.60
2023-02-14T01:05:12.047Z,20.10
2023-02-14T01:05:23.036Z,20.00
2023-02-14T01:05:33.832Z,20.30
2023-02-14T01:05:44.851Z,19.90
2023-02-14T01:05:55.824Z,19.90
2023-02-14T01:06:06.583Z,19.70
2023-02-14T01:06:17.653Z,19.80
2023-02-14T01:06:28.603Z,19.80
2023-02-14T01:06:39.410Z,19.70
2023-02-14T01:06:50.430Z,19.70
2023-02-14T01:07:01.408Z,19.70
2023-02-14T01:07:12.184Z,19.40
2023-02-14T01:07:23.248Z,19.90
2023-02-14T01:07:34.199Z,20.30
2023-02-14T01:07:44.960Z,20.00
2023-02-14T01:07:56.022Z,19.60
2023-02-14T01:08:06.986Z,19.10
2023-02-14T01:08:17.786Z,19.40
2023-02-14T01:08:28.292Z,19.60
2023-02-14T01:08:39.331Z,20.00
2023-02-14T01:08:50.087Z,19.90
2023-02-14T01:09:01.125Z,19.50
2023-02-14T01:09:12.093Z,19.10
2023-02-14T01:09:22.854Z,19.30
2023-02-14T01:09:33.921Z,19.30
2023-02-14T01:09:44.884Z,20.00
2023-02-14T01:09:55.695Z,20.20
2023-02-14T01:10:06.228Z,19.90
2023-02-14T01:10:17.198Z,20.00
2023-02-14T01:10:27.985Z,19.90
2023-02-14T01:10:39.040Z,19.90
2023-02-14T01:10:50.000Z,19.70
2023-02-14T01:11:01.263Z,19.40
2023-02-14T01:11:11.512Z,19.40
2023-02-14T01:11:22.475Z,19.30
2023-02-14T01:11:33.231Z,18.80
2023-02-14T01:11:44.281Z,18.50
2023-02-14T01:11:55.247Z,18.90
2023-02-14T01:12:06.029Z,20.00
2023-02-14T01:12:17.061Z,20.20
2023-02-14T01:12:28.029Z,20.20
2023-02-14T01:12:38.800Z,20.20
2023-02-14T01:12:49.852Z,19.70
2023-02-14T01:13:00.830Z,19.60
2023-02-14T01:13:11.590Z,19.60
2023-02-14T01:13:22.640Z,19.10
2023-02-14T01:13:33.609Z,18.70
2023-02-14T01:13:44.384Z,18.60
2023-02-14T01:13:55.424Z,19.10
2023-02-14T01:14:06.404Z,19.60
2023-02-14T01:14:17.158Z,20.10
2023-02-14T01:14:28.219Z,19.90
2023-02-14T01:14:39.192Z,19.90
2023-02-14T01:14:49.935Z,19.30
2023-02-14T01:15:01.013Z,19.40
2023-02-14T01:15:11.960Z,19.20
2023-02-14T01:15:22.734Z,19.70
2023-02-14T01:15:33.815Z,19.60
2023-02-14T01:15:44.775Z,19.90
2023-02-14T01:15:55.556Z,19.90
2023-02-14T01:16:06.665Z,20.10
2023-02-14T01:16:17.654Z,19.80
2023-02-14T01:16:28.521Z,19.50
2023-02-14T01:16:39.189Z,19.10
2023-02-14T01:16:50.219Z,18.70
2023-02-14T01:17:00.984Z,18.80
2023-02-14T01:17:12.041Z,18.70
2023-02-14T01:17:22.998Z,18.80
2023-02-14T01:17:33.802Z,19.40
2023-02-14T01:17:44.819Z,19.40
2023-02-14T01:17:55.793Z,20.30
2023-02-14T01:18:06.553Z,20.20
2023-02-14T01:18:17.631Z,20.00
2023-02-14T01:18:28.603Z,19.20
2023-02-14T01:18:39.484Z,18.30
2023-02-14T01:18:49.944Z,18.80
2023-02-14T01:19:00.930Z,19.10
2023-02-14T01:19:11.662Z,19.00
2023-02-14T01:19:22.235Z,18.50
2023-02-14T01:19:33.182Z,18.50
2023-02-14T01:19:43.941Z,18.40
2023-02-14T01:19:55.003Z,18.90
2023-02-14T01:20:05.977Z,19.40
2023-02-14T01:20:16.747Z,18.90
2023-02-14T01:20:27.789Z,18.60
2023-02-14T01:20:38.774Z,18.20
2023-02-14T01:20:49.552Z,18.50
2023-02-14T01:21:00.921Z,18.80
2023-02-14T01:21:11.473Z,18.70
2023-02-14T01:21:22.247Z,18.50
2023-02-14T01:21:33.287Z,18.00
2023-02-14T01:21:44.265Z,18.00
2023-02-14T01:21:55.034Z,18.30
2023-02-14T01:22:06.080Z,18.50
2023-02-14T01:22:17.041Z,18.40
2023-02-14T01:22:27.831Z,18.50
2023-02-14T01:22:38.888Z,19.70
2023-02-14T01:22:49.857Z,20.10
2023-02-14T01:23:00.617Z,19.80
2023-02-14T01:23:11.664Z,19.30
2023-02-14T01:23:22.640Z,19.20
2023-02-14T01:23:33.397Z,18.90
2023-02-14T01:23:44.446Z,19.40
2023-02-14T01:23:55.426Z,19.40
2023-02-14T01:24:06.219Z,19.30
2023-02-14T01:24:17.270Z,18.80
2023-02-14T01:24:28.198Z,18.80
2023-02-14T01:24:38.962Z,18.70
2023-02-14T01:24:50.012Z,19.40
2023-02-14T01:25:00.973Z,20.40
2023-02-14T01:25:11.774Z,20.00
2023-02-14T01:25:22.798Z,20.00
2023-02-14T01:25:33.779Z,19.50
2023-02-14T01:25:44.617Z,19.30
2023-02-14T01:25:55.108Z,18.70
2023-02-14T01:26:06.066Z,19.00
2023-02-14T01:26:16.843Z,19.00
2023-02-14T01:26:27.885Z,19.50
2023-02-14T01:26:38.847Z,19.10
2023-02-14T01:26:49.612Z,18.80
2023-02-14T01:27:00.658Z,18.90
2023-02-14T01:27:11.653Z,19.00
2023-02-14T01:27:22.434Z,19.60
2023-02-14T01:27:33.484Z,18.80
2023-02-14T01:27:44.446Z,18.50
2023-02-14T01:27:55.236Z,18.40
2023-02-14T01:28:06.271Z,19.10
2023-02-14T01:28:17.251Z,19.30
2023-02-14T01:28:28.003Z,19.40
2023-02-14T01:28:39.052Z,19.00
2023-02-14T01:28:50.041Z,19.00
2023-02-14T01:29:00.788Z,19.10
2023-02-14T01:29:11.832Z,19.10
2023-02-14T01:29:22.808Z,18.90
2023-02-14T01:29:33.574Z,18.90
2023-02-14T01:29:44.618Z,19.40
2023-02-14T01:29:55.673Z,19.90
2023-02-14T01:30:06.478Z,20.00
2023-02-14T01:30:17.559Z,19.60
2023-02-14T01:30:28.542Z,19.30
2023-02-14T01:30:39.357Z,19.30
2023-02-14T01:30:49.919Z,19.20
2023-02-14T01:31:01.254Z,19.30
2023-02-14T01:31:11.678Z,19.40
2023-02-14T01:31:22.324Z,19.20
2023-02-14T01:31:32.917Z,18.50
2023-02-14T01:31:43.801Z,18.40
2023-02-14T01:31:54.355Z,18.70
2023-02-14T01:32:05.361Z,19.00
2023-02-14T01:32:16.194Z,19.00
2023-02-14T01:32:26.662Z,18.80
2023-02-14T01:32:37.627Z,19.00
2023-02-14T01:32:48.407Z,19.60
2023-02-14T01:32:59.453Z,18.90
2023-02-14T01:33:10.420Z,19.00
2023-02-14T01:33:21.181Z,19.00
2023-02-14T01:33:32.235Z,19.10
2023-02-14T01:33:43.198Z,18.90
2023-02-14T01:33:53.986Z,19.00
2023-02-14T01:34:05.035Z,18.80
2023-02-14T01:34:16.016Z,19.20
2023-02-14T01:34:26.800Z,19.30
2023-02-14T01:34:37.830Z,18.80
2023-02-14T01:34:48.786Z,19.10
2023-02-14T01:34:59.579Z,19.20
2023-02-14T01:35:10.617Z,19.80
2023-02-14T01:35:21.599Z,19.60
2023-02-14T01:35:32.365Z,19.40
2023-02-14T01:35:43.449Z,19.70
2023-02-14T01:35:54.393Z,19.30
2023-02-14T01:36:05.171Z,19.20
2023-02-14T01:36:16.206Z,18.80
2023-02-14T01:36:27.176Z,19.10
2023-02-14T01:36:37.986Z,19.40
2023-02-14T01:36:48.493Z,19.30
2023-02-14T01:36:59.455Z,18.70
2023-02-14T01:37:10.219Z,18.80
2023-02-14T01:37:21.273Z,18.50
2023-02-14T01:37:32.250Z,19.30
2023-02-14T01:37:43.008Z,19.10
2023-02-14T01:37:54.049Z,19.50
2023-02-14T01:38:05.020Z,19.30
2023-02-14T01:38:15.795Z,19.30
2023-02-14T01:38:26.847Z,18.70
2023-02-14T01:38:37.809Z,18.40
2023-02-14T01:38:48.586Z,18.50
2023-02-14T01:38:59.692Z,18.30
2023-02-14T01:39:10.637Z,18.60
2023-02-14T01:39:21.393Z,18.20
2023-02-14T01:39:32.446Z,18.40
2023-02-14T01:39:43.408Z,18.40
2023-02-14T01:39:54.175Z,18.90
2023-02-14T01:40:05.259Z,19.40
2023-02-14T01:40:16.243Z,19.00
2023-02-14T01:40:26.996Z,18.80
2023-02-14T01:40:38.049Z,18.90
2023-02-14T01:40:49.012Z,19.00
2023-02-14T01:41:00.181Z,19.30
2023-02-14T01:41:10.772Z,19.50
2023-02-14T01:41:21.751Z,18.90
2023-02-14T01:41:32.525Z,18.80
2023-02-14T01:41:43.581Z,18.50
2023-02-14T01:41:54.537Z,18.80
2023-02-14T01:42:05.321Z,19.30
2023-02-14T01:42:16.377Z,19.00
2023-02-14T01:42:27.338Z,18.80
2023-02-14T01:42:38.124Z,18.60
2023-02-14T01:42:49.153Z,18.80
2023-02-14T01:43:00.122Z,19.10
2023-02-14T01:43:10.887Z,19.60
2023-02-14T01:43:21.949Z,19.70
2023-02-14T01:43:32.910Z,19.60
2023-02-14T01:43:43.667Z,19.00
2023-02-14T01:43:54.740Z,18.80
2023-02-14T01:44:05.763Z,18.90
2023-02-14T01:44:16.487Z,19.10
2023-02-14T01:44:27.532Z,18.80
2023-02-14T01:44:38.516Z,19.20
2023-02-14T01:44:49.279Z,19.20
2023-02-14T01:45:00.349Z,18.90
2023-02-14T01:45:11.294Z,19.30
2023-02-14T01:45:22.060Z,19.30
2023-02-14T01:45:33.149Z,19.50
2023-02-14T01:45:44.100Z,19.10
2023-02-14T01:45:54.909Z,18.80
2023-02-14T01:46:05.956Z,18.80
2023-02-14T01:46:16.964Z,19.10
2023-02-14T01:46:27.671Z,19.00
2023-02-14T01:46:38.727Z,19.60
2023-02-14T01:46:49.697Z,19.20
2023-02-14T01:47:00.454Z,18.70
2023-02-14T01:47:11.509Z,18.50
2023-02-14T01:47:22.480Z,18.20
2023-02-14T01:47:33.245Z,17.90
2023-02-14T01:47:44.292Z,18.10
2023-02-14T01:47:55.259Z,18.10
2023-02-14T01:48:06.039Z,18.30
2023-02-14T01:48:17.137Z,18.00
2023-02-14T01:48:28.065Z,17.20
2023-02-14T01:48:38.830Z,17.50
2023-02-14T01:48:49.885Z,17.90
2023-02-14T01:49:00.865Z,18.10
2023-02-14T01:49:11.623Z,17.60
2023-02-14T01:49:22.676Z,17.20
2023-02-14T01:49:33.668Z,16.90
2023-02-14T01:49:44.407Z,17.20
2023-02-14T01:49:55.460Z,17.40
2023-02-14T01:50:06.428Z,18.10
2023-02-14T01:50:17.200Z,17.80
2023-02-14T01:50:28.231Z,17.80
2023-02-14T01:50:39.237Z,17.50
2023-02-14T01:50:49.998Z,17.70
2023-02-14T01:51:01.445Z,17.80
2023-02-14T01:51:12.026Z,18.10
2023-02-14T01:51:22.792Z,18.30
2023-02-14T01:51:33.842Z,18.40
2023-02-14T01:51:44.806Z,18.10
2023-02-14T01:51:55.575Z,18.20
2023-02-14T01:52:06.645Z,17.90
2023-02-14T01:52:17.604Z,18.10
2023-02-14T01:52:28.360Z,18.20
2023-02-14T01:52:39.457Z,18.80
2023-02-14T01:52:50.377Z,18.70
2023-02-14T01:53:01.152Z,18.80
2023-02-14T01:53:11.691Z,19.00
2023-02-14T01:53:22.682Z,18.90
2023-02-14T01:53:33.447Z,18.90
2023-02-14T01:53:44.514Z,18.40
2023-02-14T01:53:55.505Z,18.00
2023-02-14T01:54:06.256Z,18.20
2023-02-14T01:54:17.314Z,18.60
2023-02-14T01:54:28.267Z,19.00
2023-02-14T01:54:39.041Z,19.30
2023-02-14T01:54:50.088Z,18.30
2023-02-14T01:55:01.078Z,18.20
2023-02-14T01:55:11.840Z,18.10
2023-02-14T01:55:22.882Z,18.00
2023-02-14T01:55:33.863Z,17.70
2023-02-14T01:55:44.627Z,18.20
2023-02-14T01:55:55.684Z,18.20
2023-02-14T01:56:06.710Z,18.70
2023-02-14T01:56:17.450Z,19.30
2023-02-14T01:56:28.491Z,19.20
2023-02-14T01:56:39.517Z,18.90
2023-02-14T01:56:50.230Z,18.70
2023-02-14T01:57:01.281Z,19.10
2023-02-14T01:57:12.246Z,18.60
2023-02-14T01:57:23.013Z,18.30
2023-02-14T01:57:34.070Z,17.90
2023-02-14T01:57:45.052Z,18.20
2023-02-14T01:57:55.825Z,18.90
2023-02-14T01:58:06.864Z,18.80
2023-02-14T01:58:17.829Z,18.80
2023-02-14T01:58:28.614Z,18.40
2023-02-14T01:58:39.648Z,18.50
2023-02-14T01:58:50.617Z,18.40
2023-02-14T01:59:01.383Z,18.50
2023-02-14T01:59:12.432Z,18.30
2023-02-14T01:59:23.403Z,18.00
2023-02-14T01:59:34.164Z,18.00
2023-02-14T01:59:45.234Z,18.40
2023-02-14T01:59:56.231Z,18.60
2023-02-14T02:00:06.981Z,19.40
2023-02-14T02:00:18.034Z,19.20
2023-02-14T02:00:29.008Z,18.70
2023-02-14T02:00:39.806Z,18.80
2023-02-14T02:00:50.855Z,19.00
2023-02-14T02:01:02.413Z,19.40
2023-02-14T02:01:12.702Z,19.30
2023-02-14T02:01:23.891Z,19.00
2023-02-14T02:01:34.333Z,18.90
2023-02-14T02:01:45.107Z,18.90
2023-02-14T02:01:56.163Z,19.30
2023-02-14T02:02:07.110Z,19.60
2023-02-14T02:02:17.936Z,19.30
2023-02-14T02:02:28.488Z,19.00
2023-02-14T02:02:39.595Z,18.60
2023-02-14T02:02:50.416Z,18.50
2023-02-14T02:03:01.460Z,18.80
2023-02-14T02:03:12.439Z,18.90
2023-02-14T02:03:23.179Z,18.80
2023-02-14T02:03:34.246Z,19.20
2023-02-14T02:03:45.197Z,19.30
2023-02-14T02:03:55.993Z,19.30
2023-02-14T02:04:07.010Z,19.20
2023-02-14T02:04:17.992Z,19.50
2023-02-14T02:04:28.776Z,19.70
2023-02-14T02:04:39.837Z,19.70
2023-02-14T02:04:50.785Z,19.40
2023-02-14T02:05:01.565Z,19.60
2023-02-14T02:05:12.590Z,19.60
2023-02-14T02:05:23.588Z,20.10
2023-02-14T02:05:34.318Z,19.60
2023-02-14T02:05:45.359Z,19.30
2023-02-14T02:05:56.340Z,19.00
2023-02-14T02:06:07.123Z,19.50
2023-02-14T02:06:18.204Z,19.70
2023-02-14T02:06:29.172Z,19.50
2023-02-14T02:06:39.933Z,19.00
2023-02-14T02:06:50.991Z,19.40
2023-02-14T02:07:01.947Z,19.30
2023-02-14T02:07:12.729Z,19.80
2023-02-14T02:07:23.811Z,19.20
2023-02-14T02:07:34.762Z,20.00
2023-02-14T02:07:45.552Z,19.50
2023-02-14T02:07:56.618Z,19.40
2023-02-14T02:08:07.576Z,19.00
2023-02-14T02:08:18.366Z,19.50
2023-02-14T02:08:29.394Z,19.40
2023-02-14T02:08:40.364Z,19.90
2023-02-14T02:08:51.159Z,20.10
2023-02-14T02:09:02.186Z,20.10
2023-02-14T02:09:13.189Z,20.20
2023-02-14T02:09:24.031Z,20.10
2023-02-14T02:09:34.475Z,19.60
2023-02-14T02:09:45.455Z,19.30
2023-02-14T02:09:56.234Z,19.60
2023-02-14T02:10:07.281Z,19.70
2023-02-14T02:10:18.236Z,19.80
2023-02-14T02:10:29.023Z,19.40
2023-02-14T02:10:40.080Z,19.20
2023-02-14T02:10:51.034Z,19.30
2023-02-14T02:11:02.111Z,19.30
2023-02-14T02:11:12.605Z,19.70
2023-02-14T02:11:23.569Z,19.80
2023-02-14T02:11:34.344Z,19.70
2023-02-14T02:11:45.402Z,19.40
2023-02-14T02:11:56.362Z,19.40
2023-02-14T02:12:07.128Z,19.60
2023-02-14T02:12:18.186Z,19.80
2023-02-14T02:12:30.878Z,19.60
2023-02-14T02:12:40.027Z,19.70
2023-02-14T02:12:51.084Z,19.10
2023-02-14T02:13:02.036Z,19.30
2023-02-14T02:13:12.795Z,19.40
2023-02-14T02:13:23.867Z,19.30
2023-02-14T02:13:34.853Z,19.20
2023-02-14T02:13:45.611Z,18.80
2023-02-14T02:13:56.683Z,19.20
2023-02-14T02:14:07.636Z,18.90
2023-02-14T02:14:18.462Z,19.20
2023-02-14T02:14:28.934Z,19.20
2023-02-14T02:14:39.903Z,18.70
2023-02-14T02:14:50.682Z,18.30
2023-02-14T02:15:01.720Z,17.90
2023-02-14T02:15:12.705Z,18.00
2023-02-14T02:15:23.472Z,18.10
2023-02-14T02:15:34.118Z,18.40
2023-02-14T02:15:45.037Z,18.50
2023-02-14T02:15:55.821Z,17.90
2023-02-14T02:16:06.871Z,17.80
2023-02-14T02:16:17.864Z,17.90
2023-02-14T02:16:28.673Z,17.40
2023-02-14T02:16:39.780Z,17.80
2023-02-14T02:16:50.375Z,17.70
2023-02-14T02:17:01.207Z,17.90
2023-02-14T02:17:11.677Z,18.20
2023-02-14T02:17:22.649Z,18.40
2023-02-14T02:17:33.428Z,18.30
2023-02-14T02:17:44.469Z,18.00
2023-02-14T02:17:55.436Z,17.60
2023-02-14T02:18:06.218Z,17.40
2023-02-14T02:18:17.279Z,17.50
2023-02-14T02:18:28.249Z,17.60
2023-02-14T02:18:39.038Z,17.70
2023-02-14T02:18:50.064Z,17.40
2023-02-14T02:19:01.048Z,17.50
2023-02-14T02:19:11.844Z,17.50
2023-02-14T02:19:22.864Z,17.60
2023-02-14T02:19:33.833Z,17.90
2023-02-14T02:19:44.627Z,18.20
2023-02-14T02:19:55.664Z,18.60
2023-02-14T02:20:06.631Z,18.50
2023-02-14T02:20:17.396Z,18.80
2023-02-14T02:20:28.451Z,18.00